Capitol Logistics 358




KBDL
Bradley International Airport
Windsor Locks, Connecticut
KMIA
Miami International Airport
Miami, Florida

Activity Log

Date Flight Route Aircraft Duration
No Flights Yet

Route Details

Aircraft Information
Primary: Boeing 767-300BDSF
Backup: Boeing 757-200SF
Route Data
Distance: 1041nm
Duration: 3h 20m
Recm'd Route: CSTL8 CCC GEDIC J174 SWL CEBEE WETRO DIW AR22 JORAY HILEY7
Origin Wx: KBDL 180151Z 00000KT 10SM OVC070 08/02 A2981 RMK AO2 SLP094 T00830017
Dest. Wx: KMIA 180053Z 26006KT 10SM CLR 27/18 A2989 RMK AO2 SLP122 T02670183 $
Notes: